Time;durP1;ratioP1;P1;durP2;ratioP2;P2;SDS_P1;SDS_P2;PMS_P1;PMS_P2;Temp;Humidity;BMP_temperature;BMP_pressure;BME280_temperature;BME280_humidity;BME280_pressure;Samples;Min_cycle;Max_cycle;Signal;HPM_P1;HPM_P2
2022/04/12 00:00:23;;;;;;;11.15;7.05;;;;;;;;;;4965029;28;20217;-64
2022/04/12 00:02:48;;;;;;;13.07;6.88;;;;;;;;;;4958412;28;20221;-64
2022/04/12 00:05:14;;;;;;;10.93;6.78;;;;;;;;;;4956727;28;20622;-64
2022/04/12 00:07:39;;;;;;;11.65;7.22;;;;;;;;;;4957942;28;20563;-64
2022/04/12 00:10:05;;;;;;;11.27;7.10;;;;;;;;;;4962723;28;20583;-65
2022/04/12 00:12:30;;;;;;;10.98;7.95;;;;;;;;;;4983102;28;20215;-64
2022/04/12 00:14:55;;;;;;;12.52;6.80;;;;;;;;;;4980935;28;20308;-64
2022/04/12 00:20:05;;;;;;;11.10;7.03;;;;;;;;;;4983077;28;20754;-64
2022/04/12 00:22:30;;;;;;;10.95;6.53;;;;;;;;;;4984033;28;20229;-64
2022/04/12 00:24:56;;;;;;;10.15;7.35;;;;;;;;;;4992040;28;20925;-64
2022/04/12 00:27:21;;;;;;;10.15;6.80;;;;;;;;;;4972926;28;20322;-64
2022/04/12 00:29:46;;;;;;;11.98;7.38;;;;;;;;;;4989825;28;20213;-64
2022/04/12 00:32:12;;;;;;;10.23;6.97;;;;;;;;;;4979338;28;20267;-64
2022/04/12 00:34:37;;;;;;;10.70;6.90;;;;;;;;;;4983637;28;20209;-64
2022/04/12 00:37:02;;;;;;;10.50;6.75;;;;;;;;;;4982380;28;20217;-64
2022/04/12 00:39:28;;;;;;;10.15;6.90;;;;;;;;;;4976394;28;20217;-64
2022/04/12 00:41:54;;;;;;;9.60;6.60;;;;;;;;;;4982916;28;20232;-64
2022/04/12 00:44:19;;;;;;;11.10;6.40;;;;;;;;;;4982617;28;20232;-64
2022/04/12 00:46:44;;;;;;;11.35;7.10;;;;;;;;;;4981147;28;20840;-64
2022/04/12 00:49:10;;;;;;;10.35;6.47;;;;;;;;;;4975604;28;20614;-64
2022/04/12 00:51:35;;;;;;;10.50;7.40;;;;;;;;;;4963051;28;20224;-64
2022/04/12 00:54:00;;;;;;;8.88;6.28;;;;;;;;;;4957463;28;20559;-63
2022/04/12 00:56:25;;;;;;;9.55;6.78;;;;;;;;;;4964353;28;20222;-64
2022/04/12 00:58:51;;;;;;;8.32;6.00;;;;;;;;;;4970643;28;21076;-64
2022/04/12 01:01:16;;;;;;;9.43;6.65;;;;;;;;;;4978457;28;20276;-64
2022/04/12 01:03:42;;;;;;;9.57;6.88;;;;;;;;;;4963900;28;20210;-65
2022/04/12 01:06:07;;;;;;;10.45;6.82;;;;;;;;;;4963080;28;20221;-64
2022/04/12 01:08:33;;;;;;;9.93;6.60;;;;;;;;;;4964420;28;20209;-64
2022/04/12 01:11:04;;;;;;;10.18;5.90;;;;;;;;;;4977392;28;20236;-65
2022/04/12 01:13:29;;;;;;;10.57;6.85;;;;;;;;;;4974183;28;20944;-64
2022/04/12 01:15:54;;;;;;;9.85;6.30;;;;;;;;;;4965314;28;20321;-64
2022/04/12 01:18:19;;;;;;;9.23;5.95;;;;;;;;;;4961363;28;20218;-64
2022/04/12 01:20:45;;;;;;;8.40;6.22;;;;;;;;;;4963182;28;20325;-64
2022/04/12 01:23:13;;;;;;;10.13;6.28;;;;;;;;;;4963247;28;20222;-64
2022/04/12 01:25:39;;;;;;;12.57;7.18;;;;;;;;;;4997747;28;20228;-64
2022/04/12 01:28:05;;;;;;;10.80;6.25;;;;;;;;;;4962708;28;20902;-64
2022/04/12 01:30:30;;;;;;;10.25;6.55;;;;;;;;;;4963701;28;20218;-65
2022/04/12 01:32:55;;;;;;;9.98;6.70;;;;;;;;;;4959071;28;20224;-64
2022/04/12 01:35:21;;;;;;;9.85;6.35;;;;;;;;;;4955634;28;20213;-64
2022/04/12 01:37:46;;;;;;;10.23;6.88;;;;;;;;;;4970259;28;20209;-65
2022/04/12 01:40:11;;;;;;;9.82;6.65;;;;;;;;;;4959375;28;20217;-64
2022/04/12 01:42:37;;;;;;;9.48;6.40;;;;;;;;;;4963485;28;20245;-64
2022/04/12 01:45:02;;;;;;;9.52;6.55;;;;;;;;;;4962555;28;20222;-64
2022/04/12 01:47:28;;;;;;;10.07;6.57;;;;;;;;;;4963096;28;20237;-65
2022/04/12 01:49:53;;;;;;;8.18;6.40;;;;;;;;;;4963454;28;20241;-65
2022/04/12 01:52:18;;;;;;;11.43;6.90;;;;;;;;;;4963472;28;20261;-64
2022/04/12 01:54:44;;;;;;;10.10;6.28;;;;;;;;;;4961745;28;20225;-64
2022/04/12 01:57:09;;;;;;;11.02;6.55;;;;;;;;;;4955435;28;20217;-64
2022/04/12 01:59:34;;;;;;;10.40;6.50;;;;;;;;;;4955304;28;20984;-64
2022/04/12 02:01:59;;;;;;;11.55;6.50;;;;;;;;;;4955848;28;20242;-65
2022/04/12 02:04:25;;;;;;;9.82;6.57;;;;;;;;;;4962323;28;20205;-65
2022/04/12 02:06:50;;;;;;;8.98;6.00;;;;;;;;;;4963456;28;20631;-64
2022/04/12 02:09:15;;;;;;;9.48;5.88;;;;;;;;;;4962332;28;20214;-66
2022/04/12 02:11:40;;;;;;;10.85;6.43;;;;;;;;;;4963804;28;20212;-64
2022/04/12 02:14:07;;;;;;;11.50;6.35;;;;;;;;;;4962627;28;20229;-63
2022/04/12 02:16:33;;;;;;;8.77;6.35;;;;;;;;;;4984516;28;20220;-64
2022/04/12 02:18:58;;;;;;;12.18;6.30;;;;;;;;;;4980557;28;20244;-64
2022/04/12 02:21:23;;;;;;;9.35;6.47;;;;;;;;;;4977393;28;20260;-64
2022/04/12 02:23:49;;;;;;;10.55;6.75;;;;;;;;;;4967680;28;20217;-64
2022/04/12 02:26:14;;;;;;;9.70;6.65;;;;;;;;;;4963883;28;20222;-64
2022/04/12 02:28:39;;;;;;;10.23;6.47;;;;;;;;;;4967082;28;20228;-64
2022/04/12 02:31:04;;;;;;;11.75;6.47;;;;;;;;;;4965609;28;20213;-64
2022/04/12 02:33:30;;;;;;;8.75;5.82;;;;;;;;;;4966812;28;20220;-64
2022/04/12 02:35:55;;;;;;;8.38;6.18;;;;;;;;;;4966967;28;20241;-64
2022/04/12 02:38:20;;;;;;;8.52;6.03;;;;;;;;;;4966082;28;20228;-64
2022/04/12 02:40:45;;;;;;;10.05;5.97;;;;;;;;;;4965261;28;20217;-64
2022/04/12 02:43:11;;;;;;;8.85;5.97;;;;;;;;;;4958683;28;20321;-64
2022/04/12 02:45:36;;;;;;;9.10;6.13;;;;;;;;;;4957812;28;20217;-65
2022/04/12 02:48:01;;;;;;;9.43;5.80;;;;;;;;;;4975575;28;20248;-63
2022/04/12 02:50:27;;;;;;;10.25;6.20;;;;;;;;;;4984960;28;20216;-65
2022/04/12 02:52:52;;;;;;;7.63;5.57;;;;;;;;;;4985859;28;20736;-65
2022/04/12 02:55:18;;;;;;;7.47;5.63;;;;;;;;;;4985244;28;20719;-64
2022/04/12 02:57:43;;;;;;;9.68;5.78;;;;;;;;;;4981351;28;20218;-64
2022/04/12 03:00:08;;;;;;;10.38;5.65;;;;;;;;;;4965926;28;20584;-64
2022/04/12 03:02:33;;;;;;;10.90;6.18;;;;;;;;;;4966229;28;20268;-65
2022/04/12 03:04:59;;;;;;;8.32;5.82;;;;;;;;;;4958330;28;20226;-65
2022/04/12 03:07:24;;;;;;;9.10;5.93;;;;;;;;;;4957919;28;20301;-65
2022/04/12 03:09:49;;;;;;;10.15;6.10;;;;;;;;;;4959864;28;20572;-65
2022/04/12 03:12:15;;;;;;;8.05;5.40;;;;;;;;;;4963988;28;20256;-65
2022/04/12 03:14:40;;;;;;;9.52;5.90;;;;;;;;;;4966318;28;20564;-65
2022/04/12 03:17:05;;;;;;;9.15;5.70;;;;;;;;;;4965534;28;20260;-64
2022/04/12 03:19:31;;;;;;;9.48;5.47;;;;;;;;;;4965549;28;20300;-65
2022/04/12 03:21:56;;;;;;;9.10;5.78;;;;;;;;;;4984594;28;20237;-65
2022/04/12 03:24:22;;;;;;;8.80;5.80;;;;;;;;;;4984872;28;20209;-64
2022/04/12 03:26:49;;;;;;;8.80;5.78;;;;;;;;;;4979250;28;20209;-65
2022/04/12 03:29:14;;;;;;;8.57;5.20;;;;;;;;;;4976392;28;20244;-65
2022/04/12 03:31:39;;;;;;;9.88;5.75;;;;;;;;;;4977038;28;20251;-65
2022/04/12 03:34:05;;;;;;;7.93;5.20;;;;;;;;;;4980102;28;20378;-65
2022/04/12 03:36:30;;;;;;;9.38;5.35;;;;;;;;;;4984865;28;20224;-65
2022/04/12 03:38:55;;;;;;;8.60;5.15;;;;;;;;;;4981564;28;20570;-65
2022/04/12 03:41:23;;;;;;;13.13;4.90;;;;;;;;;;4964369;28;20296;-65
2022/04/12 03:43:48;;;;;;;9.23;5.70;;;;;;;;;;4984698;28;20282;-65
2022/04/12 03:46:13;;;;;;;9.25;5.50;;;;;;;;;;4983931;28;20581;-65
2022/04/12 03:48:39;;;;;;;8.48;5.13;;;;;;;;;;4981997;28;20197;-65
2022/04/12 03:51:04;;;;;;;7.68;5.60;;;;;;;;;;4976556;28;20225;-65
2022/04/12 03:53:30;;;;;;;8.35;5.15;;;;;;;;;;4976448;28;20233;-65
2022/04/12 03:55:56;;;;;;;7.65;4.93;;;;;;;;;;4964534;28;20252;-65
2022/04/12 03:58:22;;;;;;;7.90;4.57;;;;;;;;;;4965366;28;20772;-65
2022/04/12 04:00:48;;;;;;;8.77;5.38;;;;;;;;;;4965096;28;20305;-65
2022/04/12 04:03:13;;;;;;;7.93;5.57;;;;;;;;;;4964524;28;20880;-64
2022/04/12 04:05:38;;;;;;;8.18;5.35;;;;;;;;;;4965329;28;20218;-65
2022/04/12 04:08:03;;;;;;;8.70;5.38;;;;;;;;;;4964455;28;20696;-65
2022/04/12 04:10:29;;;;;;;10.32;5.53;;;;;;;;;;4965871;28;20217;-65
2022/04/12 04:12:54;;;;;;;8.05;5.28;;;;;;;;;;4958455;28;20218;-65
2022/04/12 04:15:19;;;;;;;10.73;5.45;;;;;;;;;;4956406;28;20273;-65
2022/04/12 04:17:45;;;;;;;8.38;5.13;;;;;;;;;;4957445;28;20214;-65
2022/04/12 04:20:11;;;;;;;7.65;4.97;;;;;;;;;;4981182;28;20221;-65
2022/04/12 04:22:36;;;;;;;7.38;5.20;;;;;;;;;;4972714;28;20226;-65
2022/04/12 04:25:01;;;;;;;8.93;5.07;;;;;;;;;;4983496;28;20675;-64
2022/04/12 04:27:29;;;;;;;8.55;5.72;;;;;;;;;;4983705;28;20220;-65
2022/04/12 04:29:55;;;;;;;7.93;5.20;;;;;;;;;;4983243;28;20220;-65
2022/04/12 04:32:21;;;;;;;7.82;5.47;;;;;;;;;;4983310;28;20253;-65
2022/04/12 04:34:46;;;;;;;8.98;6.00;;;;;;;;;;4974762;28;20221;-65
2022/04/12 04:37:11;;;;;;;8.65;5.65;;;;;;;;;;4974047;28;20763;-65
2022/04/12 04:39:36;;;;;;;9.23;5.50;;;;;;;;;;4971917;28;20256;-66
2022/04/12 04:42:05;;;;;;;10.05;5.90;;;;;;;;;;4978883;28;20233;-65
2022/04/12 04:44:30;;;;;;;9.13;5.68;;;;;;;;;;4983106;28;20287;-66
2022/04/12 04:46:55;;;;;;;7.53;5.00;;;;;;;;;;4983219;28;20685;-66
2022/04/12 04:49:21;;;;;;;8.30;5.75;;;;;;;;;;4982947;28;20208;-66
2022/04/12 04:51:46;;;;;;;9.07;5.75;;;;;;;;;;4982390;28;20304;-67
2022/04/12 04:54:11;;;;;;;8.85;5.85;;;;;;;;;;4982945;28;20243;-65
2022/04/12 04:56:37;;;;;;;8.98;6.00;;;;;;;;;;4982081;28;20252;-66
2022/04/12 04:59:02;;;;;;;8.82;5.32;;;;;;;;;;4960734;28;20221;-68
2022/04/12 05:01:27;;;;;;;10.57;6.03;;;;;;;;;;4956510;28;20875;-62
2022/04/12 05:03:52;;;;;;;8.13;5.32;;;;;;;;;;4963965;28;20221;-63
2022/04/12 05:06:18;;;;;;;10.27;5.97;;;;;;;;;;4971856;28;20289;-64
2022/04/12 05:08:44;;;;;;;8.32;5.82;;;;;;;;;;4961965;28;20217;-67
2022/04/12 05:11:09;;;;;;;8.27;5.75;;;;;;;;;;4965161;28;20631;-65
2022/04/12 05:13:34;;;;;;;9.30;6.40;;;;;;;;;;4963422;28;20457;-64
2022/04/12 05:15:59;;;;;;;11.13;6.13;;;;;;;;;;4965465;28;20568;-66
2022/04/12 05:18:25;;;;;;;9.93;6.38;;;;;;;;;;4963102;28;20301;-65
2022/04/12 05:20:50;;;;;;;8.70;6.27;;;;;;;;;;4957318;28;20814;-65
2022/04/12 05:23:16;;;;;;;9.13;5.63;;;;;;;;;;4955788;28;20557;-65
2022/04/12 05:25:41;;;;;;;9.13;6.13;;;;;;;;;;4956993;28;20647;-65
2022/04/12 05:28:06;;;;;;;10.30;6.28;;;;;;;;;;4964332;28;20562;-65
2022/04/12 05:30:32;;;;;;;9.95;6.28;;;;;;;;;;4964759;28;20229;-65
2022/04/12 05:32:58;;;;;;;9.38;6.40;;;;;;;;;;4964274;28;20299;-64
2022/04/12 05:35:23;;;;;;;10.38;6.38;;;;;;;;;;4964340;28;20210;-65
2022/04/12 05:37:50;;;;;;;9.73;5.80;;;;;;;;;;4974671;28;20588;-65
2022/04/12 05:40:18;;;;;;;13.02;6.45;;;;;;;;;;4989373;28;20600;-64
2022/04/12 05:42:43;;;;;;;10.50;6.18;;;;;;;;;;4989567;28;20217;-65
2022/04/12 05:45:09;;;;;;;11.45;6.30;;;;;;;;;;4991923;28;20351;-65
2022/04/12 05:47:41;;;;;;;8.13;5.70;;;;;;;;;;4990605;28;20205;-65
2022/04/12 05:50:07;;;;;;;10.88;6.25;;;;;;;;;;4990778;28;20217;-64
2022/04/12 05:52:32;;;;;;;9.70;5.82;;;;;;;;;;4992384;28;20201;-65
2022/04/12 05:54:58;;;;;;;10.82;6.25;;;;;;;;;;4991303;28;20229;-65
2022/04/12 05:57:23;;;;;;;9.85;6.07;;;;;;;;;;4991660;28;20216;-65
2022/04/12 05:59:49;;;;;;;7.40;5.93;;;;;;;;;;4992130;28;20590;-65
2022/04/12 06:02:14;;;;;;;7.75;5.57;;;;;;;;;;4990651;28;20661;-64
2022/04/12 06:04:39;;;;;;;8.98;6.22;;;;;;;;;;4992763;28;20707;-65
2022/04/12 06:07:04;;;;;;;10.43;6.65;;;;;;;;;;4991019;28;20221;-64
2022/04/12 06:09:30;;;;;;;12.60;6.22;;;;;;;;;;4997149;28;20219;-64
2022/04/12 06:11:55;;;;;;;10.50;6.95;;;;;;;;;;5004578;28;20224;-64
2022/04/12 06:14:20;;;;;;;10.43;6.53;;;;;;;;;;4991249;28;20225;-64
2022/04/12 06:16:45;;;;;;;10.00;6.53;;;;;;;;;;4992246;28;20197;-66
2022/04/12 06:19:11;;;;;;;10.88;6.68;;;;;;;;;;4991934;28;20672;-67
2022/04/12 06:21:36;;;;;;;9.98;6.05;;;;;;;;;;4991023;28;20327;-68
2022/04/12 06:24:02;;;;;;;7.88;5.93;;;;;;;;;;4990534;28;20240;-66
2022/04/12 06:26:27;;;;;;;9.10;5.53;;;;;;;;;;4992496;28;20216;-66
2022/04/12 06:28:52;;;;;;;10.55;6.82;;;;;;;;;;4991625;28;20244;-66
2022/04/12 06:31:18;;;;;;;10.57;6.32;;;;;;;;;;4991851;28;20303;-64
2022/04/12 06:33:43;;;;;;;12.38;6.35;;;;;;;;;;4991862;28;20296;-64
2022/04/12 06:36:08;;;;;;;10.38;6.60;;;;;;;;;;4991161;28;20588;-64
2022/04/12 06:38:34;;;;;;;10.63;6.70;;;;;;;;;;4991325;28;20240;-65
2022/04/12 06:40:59;;;;;;;10.07;6.78;;;;;;;;;;4992073;28;20236;-65
2022/04/12 06:43:24;;;;;;;11.00;6.57;;;;;;;;;;4990887;28;20229;-64
2022/04/12 06:45:50;;;;;;;9.20;6.50;;;;;;;;;;4992043;28;20255;-64
2022/04/12 06:48:15;;;;;;;9.18;6.68;;;;;;;;;;4992082;28;20236;-64
2022/04/12 06:50:40;;;;;;;8.18;6.35;;;;;;;;;;4991409;28;20213;-65
2022/04/12 06:53:05;;;;;;;8.77;6.30;;;;;;;;;;4990906;28;20228;-62
2022/04/12 06:55:31;;;;;;;9.05;6.85;;;;;;;;;;4991733;28;20231;-64
2022/04/12 06:57:56;;;;;;;9.85;6.93;;;;;;;;;;4991341;28;20295;-64
2022/04/12 07:00:22;;;;;;;9.52;6.55;;;;;;;;;;4991690;28;20213;-64
2022/04/12 07:02:47;;;;;;;9.82;7.10;;;;;;;;;;4995632;28;20225;-64
2022/04/12 07:05:12;;;;;;;11.88;6.85;;;;;;;;;;4994394;28;20684;-64
2022/04/12 07:07:38;;;;;;;9.30;6.93;;;;;;;;;;4995255;28;20213;-64
2022/04/12 07:10:05;;;;;;;10.05;6.03;;;;;;;;;;4994997;28;20216;-63
2022/04/12 07:12:30;;;;;;;9.55;6.80;;;;;;;;;;4994988;28;20224;-63
2022/04/12 07:14:55;;;;;;;10.75;6.50;;;;;;;;;;5004852;28;20212;-64
2022/04/12 07:17:21;;;;;;;10.55;6.20;;;;;;;;;;5014747;28;20208;-64
2022/04/12 07:19:46;;;;;;;9.40;6.50;;;;;;;;;;5014387;28;20212;-64
2022/04/12 07:22:11;;;;;;;9.80;7.00;;;;;;;;;;5014869;28;20558;-63
2022/04/12 07:24:37;;;;;;;10.75;6.55;;;;;;;;;;5013594;28;20224;-63
2022/04/12 07:27:02;;;;;;;9.85;7.38;;;;;;;;;;5014653;28;20278;-63
2022/04/12 07:29:27;;;;;;;10.70;7.43;;;;;;;;;;5014985;28;20205;-63
2022/04/12 07:31:53;;;;;;;10.35;7.32;;;;;;;;;;5014442;28;20343;-63
2022/04/12 07:34:18;;;;;;;13.60;7.53;;;;;;;;;;5014392;28;20220;-63
2022/04/12 07:36:47;;;;;;;9.27;7.05;;;;;;;;;;5014851;28;20258;-63
2022/04/12 07:39:13;;;;;;;10.80;7.05;;;;;;;;;;5012900;28;20209;-64
2022/04/12 07:41:39;;;;;;;10.20;6.90;;;;;;;;;;5014420;28;20232;-62
2022/04/12 07:44:04;;;;;;;11.07;7.03;;;;;;;;;;5006378;28;20704;-63
2022/04/12 07:46:29;;;;;;;8.23;6.15;;;;;;;;;;4993856;28;20213;-63
2022/04/12 07:48:55;;;;;;;9.98;6.70;;;;;;;;;;4995028;28;20221;-64
2022/04/12 07:51:20;;;;;;;12.85;6.93;;;;;;;;;;4994272;28;20243;-64
2022/04/12 07:53:46;;;;;;;9.48;6.80;;;;;;;;;;5005679;28;20274;-70
2022/04/12 07:56:11;;;;;;;10.82;7.03;;;;;;;;;;5013722;28;20248;-69
2022/04/12 07:58:36;;;;;;;9.73;6.70;;;;;;;;;;5003513;28;20578;-70
2022/04/12 08:01:01;;;;;;;10.85;6.35;;;;;;;;;;4993632;28;20221;-69
2022/04/12 08:03:27;;;;;;;9.32;6.60;;;;;;;;;;4994507;28;20222;-70
2022/04/12 08:05:52;;;;;;;9.35;6.50;;;;;;;;;;4994822;28;20221;-69
2022/04/12 08:08:17;;;;;;;10.20;6.05;;;;;;;;;;4992794;28;20205;-69
2022/04/12 08:10:43;;;;;;;10.80;6.00;;;;;;;;;;4994121;28;20219;-69
2022/04/12 08:13:08;;;;;;;10.73;6.47;;;;;;;;;;4994022;28;20549;-71
2022/04/12 08:15:33;;;;;;;9.00;5.95;;;;;;;;;;4993844;28;20217;-72
2022/04/12 08:17:59;;;;;;;8.50;6.00;;;;;;;;;;4994614;28;20217;-71
2022/04/12 08:20:24;;;;;;;10.02;5.80;;;;;;;;;;4993929;28;20649;-68
2022/04/12 08:22:52;;;;;;;11.02;5.90;;;;;;;;;;4993369;28;20316;-67
2022/04/12 08:25:17;;;;;;;9.45;5.90;;;;;;;;;;4993724;28;20217;-70
2022/04/12 08:27:42;;;;;;;9.45;6.15;;;;;;;;;;4994522;28;20221;-70
2022/04/12 08:30:08;;;;;;;11.35;6.20;;;;;;;;;;4992853;28;20672;-69
2022/04/12 08:32:34;;;;;;;11.77;6.53;;;;;;;;;;4994524;28;20256;-70
2022/04/12 08:34:59;;;;;;;11.10;5.80;;;;;;;;;;4993449;28;20209;-70
2022/04/12 08:37:24;;;;;;;10.85;5.95;;;;;;;;;;4993652;28;20208;-70
2022/04/12 08:39:50;;;;;;;11.02;6.38;;;;;;;;;;4993714;28;20283;-70
2022/04/12 08:42:16;;;;;;;9.52;5.53;;;;;;;;;;4992730;28;20233;-70
2022/04/12 08:44:42;;;;;;;10.60;5.95;;;;;;;;;;4992739;28;20275;-69
2022/04/12 08:47:08;;;;;;;10.48;5.82;;;;;;;;;;4992365;28;20225;-68
2022/04/12 08:49:34;;;;;;;8.77;5.63;;;;;;;;;;4993006;28;20256;-69
2022/04/12 08:51:59;;;;;;;14.93;5.72;;;;;;;;;;4993629;28;20240;-70
2022/04/12 08:54:24;;;;;;;9.77;5.72;;;;;;;;;;4991803;28;20221;-69
2022/04/12 08:56:50;;;;;;;7.85;5.53;;;;;;;;;;4992907;28;20316;-70
2022/04/12 08:59:16;;;;;;;9.10;6.00;;;;;;;;;;4993168;28;20209;-69
2022/04/12 09:01:41;;;;;;;10.32;5.63;;;;;;;;;;4993609;28;20221;-69
2022/04/12 09:04:08;;;;;;;12.35;6.15;;;;;;;;;;4992664;28;20205;-69
2022/04/12 09:06:33;;;;;;;11.60;5.72;;;;;;;;;;4993739;28;20221;-69
2022/04/12 09:09:09;;;;;;;10.38;5.97;;;;;;;;;;4993163;28;20300;-69
2022/04/12 09:11:35;;;;;;;7.68;5.40;;;;;;;;;;4992194;28;20256;-69
2022/04/12 09:14:00;;;;;;;9.43;6.07;;;;;;;;;;4993138;28;20711;-67
2022/04/12 09:16:26;;;;;;;10.40;5.40;;;;;;;;;;4992899;28;20236;-68
2022/04/12 09:18:51;;;;;;;11.93;5.53;;;;;;;;;;4992763;28;20307;-68
2022/04/12 09:21:17;;;;;;;10.00;5.57;;;;;;;;;;4992676;28;20680;-69
2022/04/12 09:23:43;;;;;;;8.52;5.32;;;;;;;;;;4992068;28;20221;-69
2022/04/12 09:26:08;;;;;;;9.50;5.43;;;;;;;;;;4991288;28;20209;-68
2022/04/12 09:28:40;;;;;;;9.55;5.65;;;;;;;;;;4991317;28;20205;-69
2022/04/12 09:31:12;;;;;;;10.85;5.63;;;;;;;;;;4990835;28;20692;-68
2022/04/12 09:33:37;;;;;;;11.50;5.65;;;;;;;;;;4991294;28;20213;-69
2022/04/12 09:36:02;;;;;;;10.68;5.80;;;;;;;;;;4990642;28;20680;-69
2022/04/12 09:38:31;;;;;;;9.10;5.95;;;;;;;;;;4990138;28;20217;-69
2022/04/12 09:41:10;;;;;;;10.02;5.40;;;;;;;;;;4990948;28;20240;-69
2022/04/12 09:43:35;;;;;;;9.77;5.75;;;;;;;;;;4991388;28;20703;-69
2022/04/12 09:46:05;;;;;;;9.55;5.55;;;;;;;;;;4989136;28;20252;-65
2022/04/12 09:48:30;;;;;;;10.85;5.57;;;;;;;;;;4992634;28;20214;-67
2022/04/12 09:50:59;;;;;;;12.60;6.57;;;;;;;;;;4992402;28;20573;-68
2022/04/12 09:53:35;;;;;;;10.98;5.63;;;;;;;;;;4991093;28;20213;-67
2022/04/12 09:56:10;;;;;;;9.98;5.18;;;;;;;;;;4992149;28;20209;-67
2022/04/12 09:58:35;;;;;;;11.75;5.25;;;;;;;;;;4991335;28;20216;-68
2022/04/12 10:01:01;;;;;;;9.57;5.40;;;;;;;;;;4990313;28;20263;-69
2022/04/12 10:03:28;;;;;;;9.60;5.93;;;;;;;;;;4991763;28;20567;-69
2022/04/12 10:05:53;;;;;;;9.73;5.53;;;;;;;;;;4991517;28;20299;-66
2022/04/12 10:08:19;;;;;;;9.30;5.60;;;;;;;;;;4990229;28;20260;-68
2022/04/12 10:10:44;;;;;;;10.00;5.93;;;;;;;;;;4991245;28;20622;-68
2022/04/12 10:13:10;;;;;;;9.27;5.60;;;;;;;;;;4992373;28;20296;-68
2022/04/12 10:15:36;;;;;;;11.43;5.70;;;;;;;;;;4992108;28;20220;-68
2022/04/12 10:18:01;;;;;;;10.05;5.93;;;;;;;;;;4991314;28;20217;-68
2022/04/12 10:20:26;;;;;;;10.25;5.80;;;;;;;;;;4992060;28;20675;-69
2022/04/12 10:22:52;;;;;;;9.95;5.80;;;;;;;;;;4990535;28;20228;-69
2022/04/12 10:25:19;;;;;;;9.63;5.55;;;;;;;;;;4990972;28;21326;-68
2022/04/12 10:27:45;;;;;;;11.60;6.13;;;;;;;;;;5003460;28;20671;-61
2022/04/12 10:30:20;;;;;;;12.88;6.10;;;;;;;;;;4989361;28;20211;-60
2022/04/12 10:32:58;;;;;;;8.73;5.55;;;;;;;;;;4992460;28;20220;-60
2022/04/12 10:35:23;;;;;;;9.45;5.93;;;;;;;;;;4989720;28;20619;-61
2022/04/12 10:37:48;;;;;;;11.40;5.97;;;;;;;;;;4992730;28;20734;-61
2022/04/12 10:40:13;;;;;;;12.63;5.40;;;;;;;;;;4993960;28;20675;-61
2022/04/12 10:42:39;;;;;;;9.82;6.25;;;;;;;;;;4993492;28;20599;-60
2022/04/12 10:45:04;;;;;;;12.35;5.90;;;;;;;;;;4993879;28;20225;-61
2022/04/12 10:47:35;;;;;;;11.10;5.68;;;;;;;;;;4994435;28;20578;-60
2022/04/12 10:50:00;;;;;;;10.20;5.97;;;;;;;;;;4993314;28;20240;-60
2022/04/12 10:52:33;;;;;;;9.43;5.47;;;;;;;;;;4993718;28;20676;-60
2022/04/12 10:54:59;;;;;;;9.55;5.95;;;;;;;;;;4993936;28;20225;-60
2022/04/12 10:57:24;;;;;;;9.25;5.25;;;;;;;;;;4992778;28;20641;-61
2022/04/12 10:59:53;;;;;;;10.70;5.60;;;;;;;;;;4993905;28;20221;-61
2022/04/12 11:02:19;;;;;;;9.65;5.80;;;;;;;;;;4993411;28;20264;-60
2022/04/12 11:04:44;;;;;;;9.50;5.53;;;;;;;;;;4993289;28;20217;-60
2022/04/12 11:07:09;;;;;;;9.65;5.40;;;;;;;;;;4993224;28;20951;-60
2022/04/12 11:09:35;;;;;;;9.57;5.40;;;;;;;;;;4993709;28;20275;-60
2022/04/12 11:12:02;;;;;;;9.23;5.72;;;;;;;;;;4993239;28;20208;-60
2022/04/12 11:14:28;;;;;;;10.45;5.57;;;;;;;;;;4993222;28;20312;-60
2022/04/12 11:16:55;;;;;;;10.57;5.50;;;;;;;;;;4991819;28;20213;-60
2022/04/12 11:19:21;;;;;;;10.23;5.80;;;;;;;;;;4991961;28;20221;-60
2022/04/12 11:21:50;;;;;;;9.07;4.90;;;;;;;;;;4993333;28;20232;-60
2022/04/12 11:24:17;;;;;;;9.25;5.70;;;;;;;;;;4992524;28;20283;-60
2022/04/12 11:26:45;;;;;;;12.73;5.30;;;;;;;;;;4993598;28;20205;-61
2022/04/12 11:29:11;;;;;;;9.60;5.25;;;;;;;;;;4992809;28;20688;-60
2022/04/12 11:31:40;;;;;;;10.27;5.07;;;;;;;;;;4991289;28;20228;-60
2022/04/12 11:34:05;;;;;;;9.13;4.68;;;;;;;;;;4993130;28;20213;-61
2022/04/12 11:36:31;;;;;;;10.82;4.57;;;;;;;;;;4993301;28;20568;-60
2022/04/12 11:38:57;;;;;;;9.30;4.45;;;;;;;;;;4991076;28;20576;-60
2022/04/12 11:41:22;;;;;;;9.57;4.43;;;;;;;;;;4992726;28;20209;-60
2022/04/12 11:43:48;;;;;;;8.80;4.18;;;;;;;;;;4993235;28;20220;-60
2022/04/12 11:46:19;;;;;;;7.80;3.72;;;;;;;;;;4991911;28;20589;-60
2022/04/12 11:48:44;;;;;;;9.15;4.50;;;;;;;;;;4991692;28;20213;-60
2022/04/12 11:51:09;;;;;;;7.32;4.13;;;;;;;;;;4992392;28;20268;-60
2022/04/12 11:53:34;;;;;;;9.88;4.95;;;;;;;;;;4992090;28;20292;-60
2022/04/12 11:56:00;;;;;;;8.10;4.85;;;;;;;;;;4991598;28;20220;-60
2022/04/12 11:58:26;;;;;;;10.20;5.70;;;;;;;;;;4992408;28;20220;-60
2022/04/12 12:00:52;;;;;;;11.48;5.60;;;;;;;;;;4991852;28;20288;-60
2022/04/12 12:03:17;;;;;;;10.82;5.43;;;;;;;;;;4992513;28;20316;-60
2022/04/12 12:05:43;;;;;;;10.15;5.78;;;;;;;;;;4992742;28;20213;-60
2022/04/12 12:08:10;;;;;;;12.65;5.63;;;;;;;;;;4989778;28;20275;-61
2022/04/12 12:10:35;;;;;;;11.57;5.07;;;;;;;;;;4994754;28;20216;-61
2022/04/12 12:13:00;;;;;;;8.10;5.43;;;;;;;;;;4993746;28;20217;-60
2022/04/12 12:15:26;;;;;;;10.65;5.32;;;;;;;;;;4995513;28;20212;-60
2022/04/12 12:17:53;;;;;;;11.00;5.75;;;;;;;;;;5012048;28;20223;-60
2022/04/12 12:20:20;;;;;;;11.82;5.80;;;;;;;;;;5010903;28;20632;-60
2022/04/12 12:22:46;;;;;;;10.00;5.63;;;;;;;;;;5011900;28;20594;-60
2022/04/12 12:25:18;;;;;;;9.30;5.50;;;;;;;;;;5011672;28;20307;-60
2022/04/12 12:27:47;;;;;;;9.07;5.45;;;;;;;;;;5011327;28;20270;-60
2022/04/12 12:30:15;;;;;;;9.48;5.50;;;;;;;;;;5009662;28;20235;-60
2022/04/12 12:32:41;;;;;;;12.13;5.90;;;;;;;;;;4992263;28;20301;-60
2022/04/12 12:35:08;;;;;;;9.35;5.13;;;;;;;;;;4991243;28;20233;-60
2022/04/12 12:37:34;;;;;;;9.90;5.63;;;;;;;;;;4991971;28;20209;-60
2022/04/12 12:39:59;;;;;;;11.52;6.30;;;;;;;;;;4992387;28;20263;-60
2022/04/12 12:42:25;;;;;;;10.10;5.95;;;;;;;;;;4990805;28;20341;-60
2022/04/12 12:44:50;;;;;;;11.25;5.70;;;;;;;;;;4990648;28;20216;-60
2022/04/12 12:47:15;;;;;;;11.25;5.50;;;;;;;;;;4991499;28;20308;-60
2022/04/12 12:49:41;;;;;;;9.32;5.53;;;;;;;;;;4991094;28;20209;-60
2022/04/12 12:52:07;;;;;;;9.70;6.07;;;;;;;;;;4991244;28;20213;-60
2022/04/12 12:54:32;;;;;;;13.30;5.75;;;;;;;;;;4991748;28;20590;-60
2022/04/12 12:56:57;;;;;;;10.23;5.10;;;;;;;;;;4991343;28;20228;-60
2022/04/12 12:59:32;;;;;;;12.55;5.55;;;;;;;;;;4990541;28;20235;-60
2022/04/12 13:01:58;;;;;;;12.68;5.40;;;;;;;;;;4989476;28;20220;-60
2022/04/12 13:04:25;;;;;;;11.15;5.15;;;;;;;;;;4991937;28;20730;-60
2022/04/12 13:07:00;;;;;;;11.70;5.18;;;;;;;;;;4993418;28;20236;-60
2022/04/12 13:09:25;;;;;;;11.32;4.57;;;;;;;;;;4992823;28;20217;-60
2022/04/12 13:11:50;;;;;;;11.45;4.85;;;;;;;;;;4993759;28;20279;-60
2022/04/12 13:14:16;;;;;;;13.10;5.30;;;;;;;;;;4993083;28;20684;-60
2022/04/12 13:16:41;;;;;;;10.73;4.75;;;;;;;;;;4992705;28;20221;-60
2022/04/12 13:19:06;;;;;;;9.32;4.10;;;;;;;;;;4992940;28;20644;-60
2022/04/12 13:21:31;;;;;;;10.07;4.77;;;;;;;;;;4993241;28;20304;-60
2022/04/12 13:23:57;;;;;;;9.07;4.20;;;;;;;;;;4992722;28;20228;-60
2022/04/12 13:26:22;;;;;;;9.82;4.10;;;;;;;;;;4993160;28;20216;-60
2022/04/12 13:28:47;;;;;;;8.65;3.75;;;;;;;;;;4993248;28;20553;-60
2022/04/12 13:31:12;;;;;;;10.88;3.88;;;;;;;;;;4992945;28;20249;-60
2022/04/12 13:33:38;;;;;;;11.70;3.78;;;;;;;;;;5012716;28;20212;-59
2022/04/12 13:36:03;;;;;;;8.50;3.35;;;;;;;;;;5012235;28;20631;-60
2022/04/12 13:38:28;;;;;;;9.05;3.58;;;;;;;;;;5012091;28;20212;-60
2022/04/12 13:40:54;;;;;;;9.32;3.15;;;;;;;;;;5012952;28;20216;-60
2022/04/12 13:43:19;;;;;;;6.82;3.33;;;;;;;;;;5011285;28;20228;-60
2022/04/12 13:45:45;;;;;;;6.68;3.47;;;;;;;;;;5011829;28;20212;-60
2022/04/12 13:48:10;;;;;;;6.30;3.20;;;;;;;;;;5004649;28;20215;-60
2022/04/12 13:50:35;;;;;;;7.85;3.70;;;;;;;;;;4989952;28;20224;-60
2022/04/12 13:53:01;;;;;;;9.05;3.40;;;;;;;;;;4991600;28;20678;-59
2022/04/12 13:55:26;;;;;;;6.90;3.30;;;;;;;;;;4991175;28;20221;-59
2022/04/12 13:57:52;;;;;;;5.45;3.00;;;;;;;;;;4992230;28;20223;-60
2022/04/12 14:00:23;;;;;;;6.25;3.13;;;;;;;;;;4990218;28;20215;-59
2022/04/12 14:02:48;;;;;;;10.00;4.20;;;;;;;;;;4971777;28;20586;-59
2022/04/12 14:05:14;;;;;;;7.07;3.25;;;;;;;;;;4972317;28;20412;-59
2022/04/12 14:07:39;;;;;;;9.10;3.70;;;;;;;;;;4972526;28;20256;-59
2022/04/12 14:10:05;;;;;;;10.15;3.70;;;;;;;;;;4973566;28;20707;-60
2022/04/12 14:12:30;;;;;;;7.55;3.83;;;;;;;;;;4976218;28;20665;-59
2022/04/12 14:14:55;;;;;;;7.60;4.03;;;;;;;;;;4977022;28;20240;-59
2022/04/12 14:17:21;;;;;;;8.80;4.32;;;;;;;;;;4976448;28;20213;-60
2022/04/12 14:19:47;;;;;;;10.35;4.35;;;;;;;;;;4975915;28;20212;-59
2022/04/12 14:22:12;;;;;;;7.03;3.90;;;;;;;;;;4976377;28;20218;-60
2022/04/12 14:24:37;;;;;;;8.05;3.72;;;;;;;;;;4976984;28;20210;-60
2022/04/12 14:27:03;;;;;;;8.55;4.28;;;;;;;;;;4975957;28;20224;-60
2022/04/12 14:29:28;;;;;;;9.77;3.88;;;;;;;;;;4976578;28;20213;-59